sensor_id;sensor_type;location;lat;lon;timestamp;temperature;humidity
78550;DHT22;68091;52.130;5.570;2023-05-16T00:01:47;9.00;99.90
78550;DHT22;68091;52.130;5.570;2023-05-16T00:04:13;8.90;99.90
78550;DHT22;68091;52.130;5.570;2023-05-16T00:06:38;8.90;99.90
78550;DHT22;68091;52.130;5.570;2023-05-16T00:09:04;8.80;99.90
78550;DHT22;68091;52.130;5.570;2023-05-16T00:11:29;8.80;99.90
78550;DHT22;68091;52.130;5.570;2023-05-16T00:13:55;8.80;99.90
78550;DHT22;68091;52.130;5.570;2023-05-16T00:16:21;8.80;99.90
78550;DHT22;68091;52.130;5.570;2023-05-16T00:18:50;8.90;99.90
78550;DHT22;68091;52.130;5.570;2023-05-16T00:21:16;8.90;99.90
78550;DHT22;68091;52.130;5.570;2023-05-16T00:23:42;8.90;99.90
78550;DHT22;68091;52.130;5.570;2023-05-16T00:26:08;8.80;99.90
78550;DHT22;68091;52.130;5.570;2023-05-16T00:28:34;8.80;99.90
78550;DHT22;68091;52.130;5.570;2023-05-16T00:30:59;8.80;99.90
78550;DHT22;68091;52.130;5.570;2023-05-16T00:33:25;8.70;99.90
78550;DHT22;68091;52.130;5.570;2023-05-16T00:35:51;8.50;99.90
78550;DHT22;68091;52.130;5.570;2023-05-16T00:38:18;8.50;99.90
78550;DHT22;68091;52.130;5.570;2023-05-16T00:40:43;8.50;99.90
78550;DHT22;68091;52.130;5.570;2023-05-16T00:43:09;8.50;99.90
78550;DHT22;68091;52.130;5.570;2023-05-16T00:45:35;8.50;99.90
78550;DHT22;68091;52.130;5.570;2023-05-16T00:48:00;8.50;99.90
78550;DHT22;68091;52.130;5.570;2023-05-16T00:50:26;8.50;99.90
78550;DHT22;68091;52.130;5.570;2023-05-16T00:52:51;8.40;99.90
78550;DHT22;68091;52.130;5.570;2023-05-16T00:55:17;8.30;99.90
78550;DHT22;68091;52.130;5.570;2023-05-16T00:57:43;8.30;99.90
78550;DHT22;68091;52.130;5.570;2023-05-16T01:00:09;8.20;99.90
78550;DHT22;68091;52.130;5.570;2023-05-16T01:02:35;8.20;99.90
78550;DHT22;68091;52.130;5.570;2023-05-16T01:05:01;8.30;99.90
78550;DHT22;68091;52.130;5.570;2023-05-16T01:07:26;8.30;99.90
78550;DHT22;68091;52.130;5.570;2023-05-16T01:09:52;8.40;99.90
78550;DHT22;68091;52.130;5.570;2023-05-16T01:15:08;8.50;99.90
78550;DHT22;68091;52.130;5.570;2023-05-16T01:17:56;8.40;99.90
78550;DHT22;68091;52.130;5.570;2023-05-16T01:22:51;8.30;99.90
78550;DHT22;68091;52.130;5.570;2023-05-16T01:27:50;8.40;99.90
78550;DHT22;68091;52.130;5.570;2023-05-16T01:30:17;8.40;99.90
78550;DHT22;68091;52.130;5.570;2023-05-16T01:32:43;8.50;99.90
78550;DHT22;68091;52.130;5.570;2023-05-16T01:35:10;8.50;99.90
78550;DHT22;68091;52.130;5.570;2023-05-16T01:37:38;8.60;99.90
78550;DHT22;68091;52.130;5.570;2023-05-16T01:40:07;8.50;99.90
78550;DHT22;68091;52.130;5.570;2023-05-16T01:42:36;8.50;99.90
78550;DHT22;68091;52.130;5.570;2023-05-16T01:45:25;8.40;99.90
78550;DHT22;68091;52.130;5.570;2023-05-16T01:48:12;8.30;99.90
78550;DHT22;68091;52.130;5.570;2023-05-16T01:50:38;8.80;99.90
78550;DHT22;68091;52.130;5.570;2023-05-16T01:53:07;8.20;99.90
78550;DHT22;68091;52.130;5.570;2023-05-16T01:55:46;8.20;99.90
78550;DHT22;68091;52.130;5.570;2023-05-16T01:58:12;8.10;99.90
78550;DHT22;68091;52.130;5.570;2023-05-16T02:00:42;8.10;99.90
78550;DHT22;68091;52.130;5.570;2023-05-16T02:03:07;8.10;99.90
78550;DHT22;68091;52.130;5.570;2023-05-16T02:05:33;8.10;99.90
78550;DHT22;68091;52.130;5.570;2023-05-16T02:07:59;8.10;99.90
78550;DHT22;68091;52.130;5.570;2023-05-16T02:10:25;8.10;99.90
78550;DHT22;68091;52.130;5.570;2023-05-16T02:12:51;8.20;99.90
78550;DHT22;68091;52.130;5.570;2023-05-16T02:15:17;8.20;99.90
78550;DHT22;68091;52.130;5.570;2023-05-16T02:17:42;8.20;99.90
78550;DHT22;68091;52.130;5.570;2023-05-16T02:20:08;8.20;99.90
78550;DHT22;68091;52.130;5.570;2023-05-16T02:22:35;8.20;99.90
78550;DHT22;68091;52.130;5.570;2023-05-16T02:25:01;8.20;99.90
78550;DHT22;68091;52.130;5.570;2023-05-16T02:27:30;8.20;99.90
78550;DHT22;68091;52.130;5.570;2023-05-16T02:29:56;8.20;99.90
78550;DHT22;68091;52.130;5.570;2023-05-16T02:32:21;8.20;99.90
78550;DHT22;68091;52.130;5.570;2023-05-16T02:34:50;8.10;99.90
78550;DHT22;68091;52.130;5.570;2023-05-16T02:37:16;8.10;99.90
78550;DHT22;68091;52.130;5.570;2023-05-16T02:39:41;8.10;99.90
78550;DHT22;68091;52.130;5.570;2023-05-16T02:42:07;8.00;99.90
78550;DHT22;68091;52.130;5.570;2023-05-16T02:44:32;8.00;99.90
78550;DHT22;68091;52.130;5.570;2023-05-16T02:46:58;7.90;99.90
78550;DHT22;68091;52.130;5.570;2023-05-16T02:49:24;7.90;99.90
78550;DHT22;68091;52.130;5.570;2023-05-16T02:51:50;7.90;99.90
78550;DHT22;68091;52.130;5.570;2023-05-16T02:54:16;7.80;99.90
78550;DHT22;68091;52.130;5.570;2023-05-16T02:56:44;7.90;99.90
78550;DHT22;68091;52.130;5.570;2023-05-16T02:59:10;7.90;99.90
78550;DHT22;68091;52.130;5.570;2023-05-16T03:01:36;7.90;99.90
78550;DHT22;68091;52.130;5.570;2023-05-16T03:04:01;7.80;99.90
78550;DHT22;68091;52.130;5.570;2023-05-16T03:06:27;7.80;99.90
78550;DHT22;68091;52.130;5.570;2023-05-16T03:08:54;7.70;99.90
78550;DHT22;68091;52.130;5.570;2023-05-16T03:11:20;7.70;99.90
78550;DHT22;68091;52.130;5.570;2023-05-16T03:13:46;7.80;99.90
78550;DHT22;68091;52.130;5.570;2023-05-16T03:16:12;7.60;99.90
78550;DHT22;68091;52.130;5.570;2023-05-16T03:18:37;7.60;99.90
78550;DHT22;68091;52.130;5.570;2023-05-16T03:21:03;7.60;99.90
78550;DHT22;68091;52.130;5.570;2023-05-16T03:23:29;7.60;99.90
78550;DHT22;68091;52.130;5.570;2023-05-16T03:25:57;7.60;99.90
78550;DHT22;68091;52.130;5.570;2023-05-16T03:28:23;7.60;99.90
78550;DHT22;68091;52.130;5.570;2023-05-16T03:30:48;7.50;99.90
78550;DHT22;68091;52.130;5.570;2023-05-16T03:33:14;7.50;99.90
78550;DHT22;68091;52.130;5.570;2023-05-16T03:35:40;7.40;99.90
78550;DHT22;68091;52.130;5.570;2023-05-16T03:38:06;7.40;99.90
78550;DHT22;68091;52.130;5.570;2023-05-16T03:40:32;7.40;99.90
78550;DHT22;68091;52.130;5.570;2023-05-16T03:42:58;7.40;99.90
78550;DHT22;68091;52.130;5.570;2023-05-16T03:45:23;7.30;99.90
78550;DHT22;68091;52.130;5.570;2023-05-16T03:47:49;7.30;99.90
78550;DHT22;68091;52.130;5.570;2023-05-16T03:50:15;7.30;99.90
78550;DHT22;68091;52.130;5.570;2023-05-16T03:52:41;7.30;99.90
78550;DHT22;68091;52.130;5.570;2023-05-16T03:55:09;7.20;99.90
78550;DHT22;68091;52.130;5.570;2023-05-16T03:57:38;7.30;99.90
78550;DHT22;68091;52.130;5.570;2023-05-16T04:00:04;7.30;99.90
78550;DHT22;68091;52.130;5.570;2023-05-16T04:02:32;7.30;99.90
78550;DHT22;68091;52.130;5.570;2023-05-16T04:04:57;7.20;99.90
78550;DHT22;68091;52.130;5.570;2023-05-16T04:07:23;7.20;99.90
78550;DHT22;68091;52.130;5.570;2023-05-16T04:09:49;7.20;99.90
78550;DHT22;68091;52.130;5.570;2023-05-16T04:12:15;7.30;99.90
78550;DHT22;68091;52.130;5.570;2023-05-16T04:14:41;7.20;99.90
78550;DHT22;68091;52.130;5.570;2023-05-16T04:17:07;7.20;99.90
78550;DHT22;68091;52.130;5.570;2023-05-16T04:19:32;7.20;99.90
78550;DHT22;68091;52.130;5.570;2023-05-16T04:21:58;7.10;99.90
78550;DHT22;68091;52.130;5.570;2023-05-16T04:24:23;7.10;99.90
78550;DHT22;68091;52.130;5.570;2023-05-16T04:26:53;7.10;99.90
78550;DHT22;68091;52.130;5.570;2023-05-16T04:29:18;7.10;99.90
78550;DHT22;68091;52.130;5.570;2023-05-16T04:31:44;7.10;99.90
78550;DHT22;68091;52.130;5.570;2023-05-16T04:34:09;7.20;99.90
78550;DHT22;68091;52.130;5.570;2023-05-16T04:36:36;7.20;99.90
78550;DHT22;68091;52.130;5.570;2023-05-16T04:39:02;7.20;99.90
78550;DHT22;68091;52.130;5.570;2023-05-16T04:41:28;7.30;99.90
78550;DHT22;68091;52.130;5.570;2023-05-16T04:43:54;7.30;99.90
78550;DHT22;68091;52.130;5.570;2023-05-16T04:46:20;7.30;99.90
78550;DHT22;68091;52.130;5.570;2023-05-16T04:48:46;7.30;99.90
78550;DHT22;68091;52.130;5.570;2023-05-16T04:51:11;7.40;99.90
78550;DHT22;68091;52.130;5.570;2023-05-16T04:53:37;7.40;99.90
78550;DHT22;68091;52.130;5.570;2023-05-16T04:56:02;7.30;99.90
78550;DHT22;68091;52.130;5.570;2023-05-16T04:58:33;7.50;99.90
78550;DHT22;68091;52.130;5.570;2023-05-16T05:00:59;7.60;99.90
78550;DHT22;68091;52.130;5.570;2023-05-16T05:03:24;7.60;99.90
78550;DHT22;68091;52.130;5.570;2023-05-16T05:05:50;7.60;99.90
78550;DHT22;68091;52.130;5.570;2023-05-16T05:08:17;7.70;99.90
78550;DHT22;68091;52.130;5.570;2023-05-16T05:10:42;7.80;99.90
78550;DHT22;68091;52.130;5.570;2023-05-16T05:13:09;7.80;99.90
78550;DHT22;68091;52.130;5.570;2023-05-16T05:15:35;7.90;99.90
78550;DHT22;68091;52.130;5.570;2023-05-16T05:18:00;8.00;99.90
78550;DHT22;68091;52.130;5.570;2023-05-16T05:20:26;8.10;99.90
78550;DHT22;68091;52.130;5.570;2023-05-16T05:22:51;8.40;99.90
78550;DHT22;68091;52.130;5.570;2023-05-16T05:25:17;8.80;99.90
78550;DHT22;68091;52.130;5.570;2023-05-16T05:27:43;8.80;99.90
78550;DHT22;68091;52.130;5.570;2023-05-16T05:30:08;8.90;99.90
78550;DHT22;68091;52.130;5.570;2023-05-16T05:32:34;8.90;99.90
78550;DHT22;68091;52.130;5.570;2023-05-16T05:35:00;9.00;99.90
78550;DHT22;68091;52.130;5.570;2023-05-16T05:37:25;9.10;99.90
78550;DHT22;68091;52.130;5.570;2023-05-16T05:39:51;9.10;99.90
78550;DHT22;68091;52.130;5.570;2023-05-16T05:42:16;9.30;99.90
78550;DHT22;68091;52.130;5.570;2023-05-16T05:44:45;9.50;99.90
78550;DHT22;68091;52.130;5.570;2023-05-16T05:47:11;9.80;99.90
78550;DHT22;68091;52.130;5.570;2023-05-16T05:49:36;9.90;99.90
78550;DHT22;68091;52.130;5.570;2023-05-16T05:52:02;10.00;99.90
78550;DHT22;68091;52.130;5.570;2023-05-16T05:54:28;10.00;99.90
78550;DHT22;68091;52.130;5.570;2023-05-16T05:56:55;10.10;99.90
78550;DHT22;68091;52.130;5.570;2023-05-16T05:59:21;10.20;99.90
78550;DHT22;68091;52.130;5.570;2023-05-16T06:01:47;10.40;99.90
78550;DHT22;68091;52.130;5.570;2023-05-16T06:04:20;10.60;99.90
78550;DHT22;68091;52.130;5.570;2023-05-16T06:06:45;10.70;99.90
78550;DHT22;68091;52.130;5.570;2023-05-16T06:09:11;10.60;99.90
78550;DHT22;68091;52.130;5.570;2023-05-16T06:11:38;10.60;99.90
78550;DHT22;68091;52.130;5.570;2023-05-16T06:14:03;10.80;99.90
78550;DHT22;68091;52.130;5.570;2023-05-16T06:16:29;10.90;99.90
78550;DHT22;68091;52.130;5.570;2023-05-16T06:18:55;10.90;99.90
78550;DHT22;68091;52.130;5.570;2023-05-16T06:21:20;11.10;99.90
78550;DHT22;68091;52.130;5.570;2023-05-16T06:23:46;11.20;99.90
78550;DHT22;68091;52.130;5.570;2023-05-16T06:26:12;11.40;99.90
78550;DHT22;68091;52.130;5.570;2023-05-16T06:28:37;11.30;99.90
78550;DHT22;68091;52.130;5.570;2023-05-16T06:31:03;11.20;99.90
78550;DHT22;68091;52.130;5.570;2023-05-16T06:33:29;11.30;99.90
78550;DHT22;68091;52.130;5.570;2023-05-16T06:35:54;11.50;99.90
78550;DHT22;68091;52.130;5.570;2023-05-16T06:38:20;11.60;99.90
78550;DHT22;68091;52.130;5.570;2023-05-16T06:40:52;11.70;99.90
78550;DHT22;68091;52.130;5.570;2023-05-16T06:43:18;11.90;99.90
78550;DHT22;68091;52.130;5.570;2023-05-16T06:45:43;12.00;99.90
78550;DHT22;68091;52.130;5.570;2023-05-16T06:48:12;12.40;99.90
78550;DHT22;68091;52.130;5.570;2023-05-16T06:50:37;12.50;99.90
78550;DHT22;68091;52.130;5.570;2023-05-16T06:53:03;12.50;99.90
78550;DHT22;68091;52.130;5.570;2023-05-16T06:55:30;12.50;99.90
78550;DHT22;68091;52.130;5.570;2023-05-16T06:57:56;12.40;99.90
78550;DHT22;68091;52.130;5.570;2023-05-16T07:00:22;12.30;99.90
78550;DHT22;68091;52.130;5.570;2023-05-16T07:02:47;12.30;99.90
78550;DHT22;68091;52.130;5.570;2023-05-16T07:05:13;12.40;99.90
78550;DHT22;68091;52.130;5.570;2023-05-16T07:07:38;12.50;99.90
78550;DHT22;68091;52.130;5.570;2023-05-16T07:10:04;12.30;99.90
78550;DHT22;68091;52.130;5.570;2023-05-16T07:12:30;12.10;99.90
78550;DHT22;68091;52.130;5.570;2023-05-16T07:14:56;12.40;99.90
78550;DHT22;68091;52.130;5.570;2023-05-16T07:17:21;12.70;99.90
78550;DHT22;68091;52.130;5.570;2023-05-16T07:19:48;12.90;99.90
78550;DHT22;68091;52.130;5.570;2023-05-16T07:22:13;13.20;99.90
78550;DHT22;68091;52.130;5.570;2023-05-16T07:24:39;13.80;99.90
78550;DHT22;68091;52.130;5.570;2023-05-16T07:27:05;13.80;99.90
78550;DHT22;68091;52.130;5.570;2023-05-16T07:29:31;13.70;99.90
78550;DHT22;68091;52.130;5.570;2023-05-16T07:31:56;13.60;99.90
78550;DHT22;68091;52.130;5.570;2023-05-16T07:34:22;13.10;99.90
78550;DHT22;68091;52.130;5.570;2023-05-16T07:36:47;12.70;99.90
78550;DHT22;68091;52.130;5.570;2023-05-16T07:39:13;12.70;99.90
78550;DHT22;68091;52.130;5.570;2023-05-16T07:41:39;12.70;99.90
78550;DHT22;68091;52.130;5.570;2023-05-16T07:44:04;13.20;99.90
78550;DHT22;68091;52.130;5.570;2023-05-16T07:46:30;13.60;99.90
78550;DHT22;68091;52.130;5.570;2023-05-16T07:48:56;14.00;99.90
78550;DHT22;68091;52.130;5.570;2023-05-16T07:51:21;14.00;99.90
78550;DHT22;68091;52.130;5.570;2023-05-16T07:53:47;13.60;99.90
78550;DHT22;68091;52.130;5.570;2023-05-16T07:56:12;13.40;99.90
78550;DHT22;68091;52.130;5.570;2023-05-16T07:58:38;13.20;99.90
78550;DHT22;68091;52.130;5.570;2023-05-16T08:01:04;12.90;99.90
78550;DHT22;68091;52.130;5.570;2023-05-16T08:03:30;12.10;99.90
78550;DHT22;68091;52.130;5.570;2023-05-16T08:05:55;11.70;99.90
78550;DHT22;68091;52.130;5.570;2023-05-16T08:08:21;11.70;99.90
78550;DHT22;68091;52.130;5.570;2023-05-16T08:10:47;11.90;99.90
78550;DHT22;68091;52.130;5.570;2023-05-16T08:13:12;11.90;99.90
78550;DHT22;68091;52.130;5.570;2023-05-16T08:15:38;12.50;99.90
78550;DHT22;68091;52.130;5.570;2023-05-16T08:18:03;13.00;99.90
78550;DHT22;68091;52.130;5.570;2023-05-16T08:20:36;13.40;99.90
78550;DHT22;68091;52.130;5.570;2023-05-16T08:23:02;13.60;99.90
78550;DHT22;68091;52.130;5.570;2023-05-16T08:25:28;13.80;99.90
78550;DHT22;68091;52.130;5.570;2023-05-16T08:27:53;14.00;99.90
78550;DHT22;68091;52.130;5.570;2023-05-16T08:30:19;14.40;99.90
78550;DHT22;68091;52.130;5.570;2023-05-16T08:32:44;14.50;99.90
78550;DHT22;68091;52.130;5.570;2023-05-16T08:35:10;14.80;99.90
78550;DHT22;68091;52.130;5.570;2023-05-16T08:37:37;15.10;99.90
78550;DHT22;68091;52.130;5.570;2023-05-16T08:40:05;15.40;99.90
78550;DHT22;68091;52.130;5.570;2023-05-16T08:42:32;15.30;99.90
78550;DHT22;68091;52.130;5.570;2023-05-16T08:44:58;15.70;99.90
78550;DHT22;68091;52.130;5.570;2023-05-16T08:47:24;15.90;99.90
78550;DHT22;68091;52.130;5.570;2023-05-16T08:49:51;15.60;99.90
78550;DHT22;68091;52.130;5.570;2023-05-16T08:52:20;15.10;99.90
78550;DHT22;68091;52.130;5.570;2023-05-16T08:54:48;15.30;99.90
78550;DHT22;68091;52.130;5.570;2023-05-16T08:57:14;15.20;99.90
78550;DHT22;68091;52.130;5.570;2023-05-16T08:59:40;15.20;97.80
78550;DHT22;68091;52.130;5.570;2023-05-16T09:02:06;15.30;97.10
78550;DHT22;68091;52.130;5.570;2023-05-16T09:04:32;15.30;97.30
78550;DHT22;68091;52.130;5.570;2023-05-16T09:06:58;15.60;96.60
78550;DHT22;68091;52.130;5.570;2023-05-16T09:09:24;15.90;95.80
78550;DHT22;68091;52.130;5.570;2023-05-16T09:11:49;16.00;95.30
78550;DHT22;68091;52.130;5.570;2023-05-16T09:14:15;16.10;95.10
78550;DHT22;68091;52.130;5.570;2023-05-16T09:16:41;16.10;94.80
78550;DHT22;68091;52.130;5.570;2023-05-16T09:19:06;16.00;93.20
78550;DHT22;68091;52.130;5.570;2023-05-16T09:21:32;16.20;94.60
78550;DHT22;68091;52.130;5.570;2023-05-16T09:24:05;16.50;92.20
78550;DHT22;68091;52.130;5.570;2023-05-16T09:26:35;16.30;93.00
78550;DHT22;68091;52.130;5.570;2023-05-16T09:29:00;16.10;95.60
78550;DHT22;68091;52.130;5.570;2023-05-16T09:31:27;15.60;96.90
78550;DHT22;68091;52.130;5.570;2023-05-16T09:33:56;14.90;97.80
78550;DHT22;68091;52.130;5.570;2023-05-16T09:36:21;14.20;98.90
78550;DHT22;68091;52.130;5.570;2023-05-16T09:38:48;13.90;99.90
78550;DHT22;68091;52.130;5.570;2023-05-16T09:41:14;14.10;99.90
78550;DHT22;68091;52.130;5.570;2023-05-16T09:43:40;14.70;97.30
78550;DHT22;68091;52.130;5.570;2023-05-16T09:46:06;14.80;96.20
78550;DHT22;68091;52.130;5.570;2023-05-16T09:48:31;15.20;95.00
78550;DHT22;68091;52.130;5.570;2023-05-16T09:50:57;15.60;94.40
78550;DHT22;68091;52.130;5.570;2023-05-16T09:53:28;15.90;94.60
78550;DHT22;68091;52.130;5.570;2023-05-16T09:56:13;16.10;93.50
78550;DHT22;68091;52.130;5.570;2023-05-16T09:58:41;16.30;93.90
78550;DHT22;68091;52.130;5.570;2023-05-16T10:01:07;16.00;94.90
78550;DHT22;68091;52.130;5.570;2023-05-16T10:03:34;15.80;95.10
78550;DHT22;68091;52.130;5.570;2023-05-16T10:06:00;15.90;95.40
78550;DHT22;68091;52.130;5.570;2023-05-16T10:08:26;16.10;94.00
78550;DHT22;68091;52.130;5.570;2023-05-16T10:10:53;16.20;92.80
78550;DHT22;68091;52.130;5.570;2023-05-16T10:13:20;16.40;93.40
78550;DHT22;68091;52.130;5.570;2023-05-16T10:15:46;16.50;92.30
78550;DHT22;68091;52.130;5.570;2023-05-16T10:18:12;16.40;93.50
78550;DHT22;68091;52.130;5.570;2023-05-16T10:20:40;16.30;95.10
78550;DHT22;68091;52.130;5.570;2023-05-16T10:23:07;16.30;93.90
78550;DHT22;68091;52.130;5.570;2023-05-16T10:25:35;16.40;93.90
78550;DHT22;68091;52.130;5.570;2023-05-16T10:28:03;16.40;93.10
78550;DHT22;68091;52.130;5.570;2023-05-16T10:30:30;16.70;93.90
78550;DHT22;68091;52.130;5.570;2023-05-16T10:32:56;17.10;94.70
78550;DHT22;68091;52.130;5.570;2023-05-16T10:35:22;16.90;92.40
78550;DHT22;68091;52.130;5.570;2023-05-16T10:37:48;16.60;91.80
78550;DHT22;68091;52.130;5.570;2023-05-16T10:40:14;16.60;92.10
78550;DHT22;68091;52.130;5.570;2023-05-16T10:42:43;16.20;92.60
78550;DHT22;68091;52.130;5.570;2023-05-16T10:47:40;16.20;93.40
78550;DHT22;68091;52.130;5.570;2023-05-16T10:50:08;16.50;93.60
78550;DHT22;68091;52.130;5.570;2023-05-16T10:52:34;16.60;93.90
78550;DHT22;68091;52.130;5.570;2023-05-16T10:55:01;16.70;94.20
78550;DHT22;68091;52.130;5.570;2023-05-16T10:57:27;17.10;91.20
78550;DHT22;68091;52.130;5.570;2023-05-16T10:59:55;17.20;90.20
78550;DHT22;68091;52.130;5.570;2023-05-16T11:02:30;16.80;91.70
78550;DHT22;68091;52.130;5.570;2023-05-16T11:04:59;16.60;93.10
78550;DHT22;68091;52.130;5.570;2023-05-16T11:07:30;16.40;93.80
78550;DHT22;68091;52.130;5.570;2023-05-16T11:10:06;16.60;92.00
78550;DHT22;68091;52.130;5.570;2023-05-16T11:12:42;16.40;91.30
78550;DHT22;68091;52.130;5.570;2023-05-16T11:15:25;16.00;92.10
78550;DHT22;68091;52.130;5.570;2023-05-16T11:18:07;16.10;92.80
78550;DHT22;68091;52.130;5.570;2023-05-16T11:20:34;16.40;91.70
78550;DHT22;68091;52.130;5.570;2023-05-16T11:25:47;16.50;90.80
78550;DHT22;68091;52.130;5.570;2023-05-16T11:28:15;16.30;91.60
78550;DHT22;68091;52.130;5.570;2023-05-16T11:30:44;16.10;92.40
78550;DHT22;68091;52.130;5.570;2023-05-16T11:33:10;15.50;92.90
78550;DHT22;68091;52.130;5.570;2023-05-16T11:35:37;15.20;93.20
78550;DHT22;68091;52.130;5.570;2023-05-16T11:38:03;15.20;92.30
78550;DHT22;68091;52.130;5.570;2023-05-16T11:40:28;15.10;93.10
78550;DHT22;68091;52.130;5.570;2023-05-16T11:42:58;15.20;91.50
78550;DHT22;68091;52.130;5.570;2023-05-16T11:45:24;15.20;91.90
78550;DHT22;68091;52.130;5.570;2023-05-16T11:47:50;15.20;92.00
78550;DHT22;68091;52.130;5.570;2023-05-16T11:50:20;15.00;92.10
78550;DHT22;68091;52.130;5.570;2023-05-16T11:52:50;15.10;92.20
78550;DHT22;68091;52.130;5.570;2023-05-16T11:55:22;15.10;92.10
78550;DHT22;68091;52.130;5.570;2023-05-16T11:57:48;15.10;92.00
78550;DHT22;68091;52.130;5.570;2023-05-16T12:00:16;15.00;92.40
78550;DHT22;68091;52.130;5.570;2023-05-16T12:02:43;14.70;93.50
78550;DHT22;68091;52.130;5.570;2023-05-16T12:05:08;14.70;93.80
78550;DHT22;68091;52.130;5.570;2023-05-16T12:07:34;14.70;93.80
78550;DHT22;68091;52.130;5.570;2023-05-16T12:10:07;14.40;94.30
78550;DHT22;68091;52.130;5.570;2023-05-16T12:12:36;14.30;94.80
78550;DHT22;68091;52.130;5.570;2023-05-16T12:15:02;14.30;95.60
78550;DHT22;68091;52.130;5.570;2023-05-16T12:17:28;14.30;96.20
78550;DHT22;68091;52.130;5.570;2023-05-16T12:19:54;14.30;95.90
78550;DHT22;68091;52.130;5.570;2023-05-16T12:22:20;14.10;96.20
78550;DHT22;68091;52.130;5.570;2023-05-16T12:24:45;13.90;97.30
78550;DHT22;68091;52.130;5.570;2023-05-16T12:27:11;13.80;98.80
78550;DHT22;68091;52.130;5.570;2023-05-16T12:29:37;13.70;99.90
78550;DHT22;68091;52.130;5.570;2023-05-16T12:32:02;13.30;99.90
78550;DHT22;68091;52.130;5.570;2023-05-16T12:34:29;13.20;99.90
78550;DHT22;68091;52.130;5.570;2023-05-16T12:36:54;13.00;99.90
78550;DHT22;68091;52.130;5.570;2023-05-16T12:39:20;13.00;99.90
78550;DHT22;68091;52.130;5.570;2023-05-16T12:41:47;13.20;99.90
78550;DHT22;68091;52.130;5.570;2023-05-16T12:44:13;13.40;99.90
78550;DHT22;68091;52.130;5.570;2023-05-16T12:46:41;14.00;99.90
78550;DHT22;68091;52.130;5.570;2023-05-16T12:49:07;14.20;99.90
78550;DHT22;68091;52.130;5.570;2023-05-16T12:51:33;14.70;99.90
78550;DHT22;68091;52.130;5.570;2023-05-16T12:54:05;15.10;99.90
78550;DHT22;68091;52.130;5.570;2023-05-16T12:56:31;15.20;99.90
78550;DHT22;68091;52.130;5.570;2023-05-16T12:58:57;15.40;99.90
78550;DHT22;68091;52.130;5.570;2023-05-16T13:01:22;15.30;99.90
78550;DHT22;68091;52.130;5.570;2023-05-16T13:03:48;14.90;99.90
78550;DHT22;68091;52.130;5.570;2023-05-16T13:06:13;15.60;99.90
78550;DHT22;68091;52.130;5.570;2023-05-16T13:08:39;16.10;99.90
78550;DHT22;68091;52.130;5.570;2023-05-16T13:11:05;16.10;99.90
78550;DHT22;68091;52.130;5.570;2023-05-16T13:13:31;15.70;99.80
78550;DHT22;68091;52.130;5.570;2023-05-16T13:15:56;15.30;99.90
78550;DHT22;68091;52.130;5.570;2023-05-16T13:18:22;15.20;99.90
78550;DHT22;68091;52.130;5.570;2023-05-16T13:20:53;15.00;99.90
78550;DHT22;68091;52.130;5.570;2023-05-16T13:23:20;14.70;99.70
78550;DHT22;68091;52.130;5.570;2023-05-16T13:25:45;14.60;99.80
78550;DHT22;68091;52.130;5.570;2023-05-16T13:28:11;14.50;99.90
78550;DHT22;68091;52.130;5.570;2023-05-16T13:30:37;14.70;99.90
78550;DHT22;68091;52.130;5.570;2023-05-16T13:33:02;14.70;99.90
78550;DHT22;68091;52.130;5.570;2023-05-16T13:35:28;14.80;99.90
78550;DHT22;68091;52.130;5.570;2023-05-16T13:37:57;14.80;99.90
78550;DHT22;68091;52.130;5.570;2023-05-16T13:40:22;14.90;99.90
78550;DHT22;68091;52.130;5.570;2023-05-16T13:42:48;14.80;99.90
78550;DHT22;68091;52.130;5.570;2023-05-16T13:45:14;14.70;99.90
78550;DHT22;68091;52.130;5.570;2023-05-16T13:47:39;14.70;99.90
78550;DHT22;68091;52.130;5.570;2023-05-16T13:50:08;14.70;99.90
78550;DHT22;68091;52.130;5.570;2023-05-16T13:52:35;14.80;99.80
78550;DHT22;68091;52.130;5.570;2023-05-16T13:55:01;15.40;99.60
78550;DHT22;68091;52.130;5.570;2023-05-16T13:57:27;16.30;98.40
78550;DHT22;68091;52.130;5.570;2023-05-16T13:59:53;17.20;96.00
78550;DHT22;68091;52.130;5.570;2023-05-16T14:02:19;17.00;96.10
78550;DHT22;68091;52.130;5.570;2023-05-16T14:04:44;16.40;96.30
78550;DHT22;68091;52.130;5.570;2023-05-16T14:07:13;15.70;96.70
78550;DHT22;68091;52.130;5.570;2023-05-16T14:09:39;15.50;97.90
78550;DHT22;68091;52.130;5.570;2023-05-16T14:12:05;15.30;98.00
78550;DHT22;68091;52.130;5.570;2023-05-16T14:14:32;15.30;98.50
78550;DHT22;68091;52.130;5.570;2023-05-16T14:16:57;15.20;98.50
78550;DHT22;68091;52.130;5.570;2023-05-16T14:19:23;15.00;98.90
78550;DHT22;68091;52.130;5.570;2023-05-16T14:21:49;14.90;99.20
78550;DHT22;68091;52.130;5.570;2023-05-16T14:24:14;15.10;98.80
78550;DHT22;68091;52.130;5.570;2023-05-16T14:26:40;15.30;98.40
78550;DHT22;68091;52.130;5.570;2023-05-16T14:29:05;15.40;98.10
78550;DHT22;68091;52.130;5.570;2023-05-16T14:31:31;15.00;98.00
78550;DHT22;68091;52.130;5.570;2023-05-16T14:33:57;14.70;98.50
78550;DHT22;68091;52.130;5.570;2023-05-16T14:36:23;14.40;98.90
78550;DHT22;68091;52.130;5.570;2023-05-16T14:38:49;14.30;99.40
78550;DHT22;68091;52.130;5.570;2023-05-16T14:41:15;14.40;98.90
78550;DHT22;68091;52.130;5.570;2023-05-16T14:43:43;14.50;98.60
78550;DHT22;68091;52.130;5.570;2023-05-16T14:46:09;14.70;98.70
78550;DHT22;68091;52.130;5.570;2023-05-16T14:48:35;14.80;98.30
78550;DHT22;68091;52.130;5.570;2023-05-16T14:51:01;14.60;97.50
78550;DHT22;68091;52.130;5.570;2023-05-16T14:53:26;14.60;97.90
78550;DHT22;68091;52.130;5.570;2023-05-16T14:55:52;14.40;97.70
78550;DHT22;68091;52.130;5.570;2023-05-16T14:58:17;14.30;98.00
78550;DHT22;68091;52.130;5.570;2023-05-16T15:00:43;14.30;98.30
78550;DHT22;68091;52.130;5.570;2023-05-16T15:03:11;14.20;99.00
78550;DHT22;68091;52.130;5.570;2023-05-16T15:05:37;14.10;99.10
78550;DHT22;68091;52.130;5.570;2023-05-16T15:08:02;13.90;99.30
78550;DHT22;68091;52.130;5.570;2023-05-16T15:10:28;13.90;99.50
78550;DHT22;68091;52.130;5.570;2023-05-16T15:12:54;13.90;99.30
78550;DHT22;68091;52.130;5.570;2023-05-16T15:15:19;13.90;99.40
78550;DHT22;68091;52.130;5.570;2023-05-16T15:17:45;13.80;99.30
78550;DHT22;68091;52.130;5.570;2023-05-16T15:20:10;13.70;99.30
78550;DHT22;68091;52.130;5.570;2023-05-16T15:22:39;13.70;99.40
78550;DHT22;68091;52.130;5.570;2023-05-16T15:25:08;13.70;98.90
78550;DHT22;68091;52.130;5.570;2023-05-16T15:27:34;13.60;99.30
78550;DHT22;68091;52.130;5.570;2023-05-16T15:29:59;13.90;98.90
78550;DHT22;68091;52.130;5.570;2023-05-16T15:32:25;14.00;98.30
78550;DHT22;68091;52.130;5.570;2023-05-16T15:34:51;14.20;97.70
78550;DHT22;68091;52.130;5.570;2023-05-16T15:37:16;14.30;97.20
78550;DHT22;68091;52.130;5.570;2023-05-16T15:39:42;14.40;97.40
78550;DHT22;68091;52.130;5.570;2023-05-16T15:42:08;14.60;96.90
78550;DHT22;68091;52.130;5.570;2023-05-16T15:44:33;14.70;97.10
78550;DHT22;68091;52.130;5.570;2023-05-16T15:46:59;14.90;96.80